sensor_id;sensor_type;location;lat;lon;timestamp;temperature;humidity
48936;DHT22;34745;52.276;10.528;2023-01-28T00:00:49;1.40;1.00
48936;DHT22;34745;52.276;10.528;2023-01-28T00:03:16;1.50;1.00
48936;DHT22;34745;52.276;10.528;2023-01-28T00:05:43;1.50;1.00
48936;DHT22;34745;52.276;10.528;2023-01-28T00:08:10;1.50;1.00
48936;DHT22;34745;52.276;10.528;2023-01-28T00:10:39;1.50;1.00
48936;DHT22;34745;52.276;10.528;2023-01-28T00:13:08;1.50;1.00
48936;DHT22;34745;52.276;10.528;2023-01-28T00:15:37;1.50;1.00
48936;DHT22;34745;52.276;10.528;2023-01-28T00:18:04;1.50;1.00
48936;DHT22;34745;52.276;10.528;2023-01-28T00:20:31;1.50;1.00
48936;DHT22;34745;52.276;10.528;2023-01-28T00:22:58;1.50;1.00
48936;DHT22;34745;52.276;10.528;2023-01-28T00:25:25;1.60;1.00
48936;DHT22;34745;52.276;10.528;2023-01-28T00:27:52;1.60;1.00
48936;DHT22;34745;52.276;10.528;2023-01-28T00:30:20;1.60;1.00
48936;DHT22;34745;52.276;10.528;2023-01-28T00:32:48;1.70;1.00
48936;DHT22;34745;52.276;10.528;2023-01-28T00:35:15;1.70;1.00
48936;DHT22;34745;52.276;10.528;2023-01-28T00:37:44;1.80;1.00
48936;DHT22;34745;52.276;10.528;2023-01-28T00:40:12;1.80;1.00
48936;DHT22;34745;52.276;10.528;2023-01-28T00:42:39;1.80;1.00
48936;DHT22;34745;52.276;10.528;2023-01-28T00:45:07;1.90;1.00
48936;DHT22;34745;52.276;10.528;2023-01-28T00:47:36;1.90;1.00
48936;DHT22;34745;52.276;10.528;2023-01-28T00:50:04;1.90;1.00
48936;DHT22;34745;52.276;10.528;2023-01-28T00:52:31;1.90;1.00
48936;DHT22;34745;52.276;10.528;2023-01-28T00:54:58;2.00;1.00
48936;DHT22;34745;52.276;10.528;2023-01-28T00:57:25;1.90;1.00
48936;DHT22;34745;52.276;10.528;2023-01-28T00:59:52;1.90;1.00
48936;DHT22;34745;52.276;10.528;2023-01-28T01:02:19;2.00;1.00
48936;DHT22;34745;52.276;10.528;2023-01-28T01:04:48;2.00;1.00
48936;DHT22;34745;52.276;10.528;2023-01-28T01:07:30;2.00;1.00
48936;DHT22;34745;52.276;10.528;2023-01-28T01:10:10;2.00;1.00
48936;DHT22;34745;52.276;10.528;2023-01-28T01:12:38;2.00;1.00
48936;DHT22;34745;52.276;10.528;2023-01-28T01:15:06;2.00;1.00
48936;DHT22;34745;52.276;10.528;2023-01-28T01:17:37;2.00;1.00
48936;DHT22;34745;52.276;10.528;2023-01-28T01:20:11;2.00;1.00
48936;DHT22;34745;52.276;10.528;2023-01-28T01:22:38;2.00;1.00
48936;DHT22;34745;52.276;10.528;2023-01-28T01:25:06;2.00;1.00
48936;DHT22;34745;52.276;10.528;2023-01-28T01:27:33;2.10;1.00
48936;DHT22;34745;52.276;10.528;2023-01-28T01:30:01;2.10;1.00
48936;DHT22;34745;52.276;10.528;2023-01-28T01:32:29;2.10;1.00
48936;DHT22;34745;52.276;10.528;2023-01-28T01:34:56;2.10;1.00
48936;DHT22;34745;52.276;10.528;2023-01-28T01:37:25;2.00;1.00
48936;DHT22;34745;52.276;10.528;2023-01-28T01:39:52;2.00;1.00
48936;DHT22;34745;52.276;10.528;2023-01-28T01:42:20;2.10;1.00
48936;DHT22;34745;52.276;10.528;2023-01-28T01:44:56;2.10;1.00
48936;DHT22;34745;52.276;10.528;2023-01-28T01:47:26;2.10;1.00
48936;DHT22;34745;52.276;10.528;2023-01-28T01:49:55;2.10;1.00
48936;DHT22;34745;52.276;10.528;2023-01-28T01:52:28;2.00;1.00
48936;DHT22;34745;52.276;10.528;2023-01-28T01:54:59;2.00;1.00
48936;DHT22;34745;52.276;10.528;2023-01-28T01:57:29;2.10;1.00
48936;DHT22;34745;52.276;10.528;2023-01-28T01:59:59;2.10;1.00
48936;DHT22;34745;52.276;10.528;2023-01-28T02:02:38;2.10;1.00
48936;DHT22;34745;52.276;10.528;2023-01-28T02:05:07;2.10;1.00
48936;DHT22;34745;52.276;10.528;2023-01-28T02:07:36;2.10;1.00
48936;DHT22;34745;52.276;10.528;2023-01-28T02:10:05;2.10;1.00
48936;DHT22;34745;52.276;10.528;2023-01-28T02:12:35;2.10;1.00
48936;DHT22;34745;52.276;10.528;2023-01-28T02:15:06;2.10;1.00
48936;DHT22;34745;52.276;10.528;2023-01-28T02:17:35;2.10;1.00
48936;DHT22;34745;52.276;10.528;2023-01-28T02:20:04;2.10;1.00
48936;DHT22;34745;52.276;10.528;2023-01-28T02:23:10;2.10;1.00
48936;DHT22;34745;52.276;10.528;2023-01-28T02:28:48;2.00;1.00
48936;DHT22;34745;52.276;10.528;2023-01-28T02:31:19;2.10;1.00
48936;DHT22;34745;52.276;10.528;2023-01-28T02:33:57;2.10;1.00
48936;DHT22;34745;52.276;10.528;2023-01-28T02:36:31;2.10;1.00
48936;DHT22;34745;52.276;10.528;2023-01-28T02:39:07;2.10;1.00
48936;DHT22;34745;52.276;10.528;2023-01-28T02:41:40;2.00;1.00
48936;DHT22;34745;52.276;10.528;2023-01-28T02:44:10;2.10;1.00
48936;DHT22;34745;52.276;10.528;2023-01-28T02:46:37;2.10;1.00
48936;DHT22;34745;52.276;10.528;2023-01-28T02:49:26;2.00;1.00
48936;DHT22;34745;52.276;10.528;2023-01-28T02:52:13;2.00;1.00
48936;DHT22;34745;52.276;10.528;2023-01-28T02:54:49;2.10;1.00
48936;DHT22;34745;52.276;10.528;2023-01-28T02:57:29;2.00;1.00
48936;DHT22;34745;52.276;10.528;2023-01-28T03:00:06;2.10;1.00
48936;DHT22;34745;52.276;10.528;2023-01-28T03:02:43;2.10;1.00
48936;DHT22;34745;52.276;10.528;2023-01-28T03:05:16;2.10;1.00
48936;DHT22;34745;52.276;10.528;2023-01-28T03:07:47;2.10;1.00
48936;DHT22;34745;52.276;10.528;2023-01-28T03:10:17;2.10;1.00
48936;DHT22;34745;52.276;10.528;2023-01-28T03:12:50;2.10;1.00
48936;DHT22;34745;52.276;10.528;2023-01-28T03:15:40;2.10;1.00
48936;DHT22;34745;52.276;10.528;2023-01-28T03:18:31;2.10;1.00
48936;DHT22;34745;52.276;10.528;2023-01-28T03:21:21;2.10;1.00
48936;DHT22;34745;52.276;10.528;2023-01-28T03:24:10;2.10;1.00
48936;DHT22;34745;52.276;10.528;2023-01-28T03:27:02;2.10;1.00
48936;DHT22;34745;52.276;10.528;2023-01-28T03:29:52;2.10;1.00
48936;DHT22;34745;52.276;10.528;2023-01-28T03:32:41;2.10;1.00
48936;DHT22;34745;52.276;10.528;2023-01-28T03:35:29;2.10;1.00
48936;DHT22;34745;52.276;10.528;2023-01-28T03:38:18;2.10;1.00
48936;DHT22;34745;52.276;10.528;2023-01-28T03:40:50;2.10;1.00
48936;DHT22;34745;52.276;10.528;2023-01-28T03:43:17;2.10;1.00
48936;DHT22;34745;52.276;10.528;2023-01-28T03:45:44;2.00;1.00
48936;DHT22;34745;52.276;10.528;2023-01-28T03:48:13;2.00;1.00
48936;DHT22;34745;52.276;10.528;2023-01-28T03:50:40;2.00;1.00
48936;DHT22;34745;52.276;10.528;2023-01-28T03:53:08;2.00;1.00
48936;DHT22;34745;52.276;10.528;2023-01-28T03:55:42;2.00;1.00
48936;DHT22;34745;52.276;10.528;2023-01-28T03:58:10;2.00;1.00
48936;DHT22;34745;52.276;10.528;2023-01-28T04:00:37;2.00;1.00
48936;DHT22;34745;52.276;10.528;2023-01-28T04:03:08;2.00;1.00
48936;DHT22;34745;52.276;10.528;2023-01-28T04:05:44;2.10;1.00
48936;DHT22;34745;52.276;10.528;2023-01-28T04:08:12;2.00;1.00
48936;DHT22;34745;52.276;10.528;2023-01-28T04:10:39;2.00;1.00
48936;DHT22;34745;52.276;10.528;2023-01-28T04:13:07;2.00;1.00
48936;DHT22;34745;52.276;10.528;2023-01-28T04:15:34;2.00;1.00
48936;DHT22;34745;52.276;10.528;2023-01-28T04:18:02;2.00;1.00
48936;DHT22;34745;52.276;10.528;2023-01-28T04:20:30;2.00;1.00
48936;DHT22;34745;52.276;10.528;2023-01-28T04:22:59;2.00;1.00
48936;DHT22;34745;52.276;10.528;2023-01-28T04:25:26;2.10;1.00
48936;DHT22;34745;52.276;10.528;2023-01-28T04:27:53;2.10;1.00
48936;DHT22;34745;52.276;10.528;2023-01-28T04:30:20;2.10;1.00
48936;DHT22;34745;52.276;10.528;2023-01-28T04:32:48;2.10;1.00
48936;DHT22;34745;52.276;10.528;2023-01-28T04:35:18;2.10;1.00
48936;DHT22;34745;52.276;10.528;2023-01-28T04:37:45;2.10;1.00
48936;DHT22;34745;52.276;10.528;2023-01-28T04:40:14;2.10;1.00
48936;DHT22;34745;52.276;10.528;2023-01-28T04:42:41;2.10;1.00
48936;DHT22;34745;52.276;10.528;2023-01-28T04:45:09;2.10;1.00
48936;DHT22;34745;52.276;10.528;2023-01-28T04:47:36;2.10;1.00
48936;DHT22;34745;52.276;10.528;2023-01-28T04:50:04;2.20;1.00
48936;DHT22;34745;52.276;10.528;2023-01-28T04:52:31;2.10;1.00
48936;DHT22;34745;52.276;10.528;2023-01-28T04:54:58;2.10;1.00
48936;DHT22;34745;52.276;10.528;2023-01-28T04:57:28;2.10;1.00
48936;DHT22;34745;52.276;10.528;2023-01-28T04:59:55;2.10;1.00
48936;DHT22;34745;52.276;10.528;2023-01-28T05:02:22;2.10;1.00
48936;DHT22;34745;52.276;10.528;2023-01-28T05:04:49;2.10;1.00
48936;DHT22;34745;52.276;10.528;2023-01-28T05:07:17;2.00;1.00
48936;DHT22;34745;52.276;10.528;2023-01-28T05:09:44;2.10;1.00
48936;DHT22;34745;52.276;10.528;2023-01-28T05:12:10;2.10;1.00
48936;DHT22;34745;52.276;10.528;2023-01-28T05:14:39;2.10;1.00
48936;DHT22;34745;52.276;10.528;2023-01-28T05:17:06;2.10;1.00
48936;DHT22;34745;52.276;10.528;2023-01-28T05:19:33;2.10;1.00
48936;DHT22;34745;52.276;10.528;2023-01-28T05:22:00;2.00;1.00
48936;DHT22;34745;52.276;10.528;2023-01-28T05:24:27;2.10;1.00
48936;DHT22;34745;52.276;10.528;2023-01-28T05:26:55;2.10;1.00
48936;DHT22;34745;52.276;10.528;2023-01-28T05:29:22;2.10;1.00
48936;DHT22;34745;52.276;10.528;2023-01-28T05:31:50;2.10;1.00
48936;DHT22;34745;52.276;10.528;2023-01-28T05:34:17;2.10;1.00
48936;DHT22;34745;52.276;10.528;2023-01-28T05:36:44;2.00;1.00
48936;DHT22;34745;52.276;10.528;2023-01-28T05:39:11;2.10;1.00
48936;DHT22;34745;52.276;10.528;2023-01-28T05:41:38;2.10;1.00
48936;DHT22;34745;52.276;10.528;2023-01-28T05:44:05;2.00;1.00
48936;DHT22;34745;52.276;10.528;2023-01-28T05:46:32;2.00;1.00
48936;DHT22;34745;52.276;10.528;2023-01-28T05:49:00;2.00;1.00
48936;DHT22;34745;52.276;10.528;2023-01-28T05:51:27;2.00;1.00
48936;DHT22;34745;52.276;10.528;2023-01-28T05:53:54;2.00;1.00
48936;DHT22;34745;52.276;10.528;2023-01-28T05:56:21;2.00;1.00
48936;DHT22;34745;52.276;10.528;2023-01-28T05:58:48;2.00;1.00
48936;DHT22;34745;52.276;10.528;2023-01-28T06:01:15;2.00;1.00
48936;DHT22;34745;52.276;10.528;2023-01-28T06:03:42;2.00;1.00
48936;DHT22;34745;52.276;10.528;2023-01-28T06:06:11;2.00;1.00
48936;DHT22;34745;52.276;10.528;2023-01-28T06:08:38;2.00;1.00
48936;DHT22;34745;52.276;10.528;2023-01-28T06:11:05;1.90;1.00
48936;DHT22;34745;52.276;10.528;2023-01-28T06:13:32;1.90;1.00
48936;DHT22;34745;52.276;10.528;2023-01-28T06:16:00;1.90;1.00
48936;DHT22;34745;52.276;10.528;2023-01-28T06:18:27;2.00;1.00
48936;DHT22;34745;52.276;10.528;2023-01-28T06:20:54;1.90;1.00
48936;DHT22;34745;52.276;10.528;2023-01-28T06:23:22;2.00;1.00
48936;DHT22;34745;52.276;10.528;2023-01-28T06:25:52;2.00;1.00
48936;DHT22;34745;52.276;10.528;2023-01-28T06:28:19;1.90;1.00
48936;DHT22;34745;52.276;10.528;2023-01-28T06:30:47;1.90;1.00
48936;DHT22;34745;52.276;10.528;2023-01-28T06:33:14;2.00;1.00
48936;DHT22;34745;52.276;10.528;2023-01-28T06:35:42;2.00;1.00
48936;DHT22;34745;52.276;10.528;2023-01-28T06:38:09;2.00;1.00
48936;DHT22;34745;52.276;10.528;2023-01-28T06:40:37;2.00;1.00
48936;DHT22;34745;52.276;10.528;2023-01-28T06:43:05;1.90;1.00
48936;DHT22;34745;52.276;10.528;2023-01-28T06:45:32;1.90;1.00
48936;DHT22;34745;52.276;10.528;2023-01-28T06:47:59;1.90;1.00
48936;DHT22;34745;52.276;10.528;2023-01-28T06:50:26;1.90;1.00
48936;DHT22;34745;52.276;10.528;2023-01-28T06:52:53;1.90;1.00
48936;DHT22;34745;52.276;10.528;2023-01-28T06:55:20;1.90;1.00
48936;DHT22;34745;52.276;10.528;2023-01-28T06:57:48;1.80;1.00
48936;DHT22;34745;52.276;10.528;2023-01-28T07:00:16;1.90;1.00
48936;DHT22;34745;52.276;10.528;2023-01-28T07:02:44;1.80;1.00
48936;DHT22;34745;52.276;10.528;2023-01-28T07:05:11;1.80;1.00
48936;DHT22;34745;52.276;10.528;2023-01-28T07:07:38;1.80;1.00
48936;DHT22;34745;52.276;10.528;2023-01-28T07:10:09;1.80;1.00
48936;DHT22;34745;52.276;10.528;2023-01-28T07:12:36;1.80;1.00
48936;DHT22;34745;52.276;10.528;2023-01-28T07:15:06;1.90;1.00
48936;DHT22;34745;52.276;10.528;2023-01-28T07:17:33;1.90;1.00
48936;DHT22;34745;52.276;10.528;2023-01-28T07:20:00;1.90;1.00
48936;DHT22;34745;52.276;10.528;2023-01-28T07:22:27;1.90;1.00
48936;DHT22;34745;52.276;10.528;2023-01-28T07:24:54;1.90;1.00
48936;DHT22;34745;52.276;10.528;2023-01-28T07:27:21;1.90;1.00
48936;DHT22;34745;52.276;10.528;2023-01-28T07:29:48;1.90;1.00
48936;DHT22;34745;52.276;10.528;2023-01-28T07:32:17;1.90;1.00
48936;DHT22;34745;52.276;10.528;2023-01-28T07:34:44;1.90;1.00
48936;DHT22;34745;52.276;10.528;2023-01-28T07:37:11;1.90;1.00
48936;DHT22;34745;52.276;10.528;2023-01-28T07:39:38;1.90;1.00
48936;DHT22;34745;52.276;10.528;2023-01-28T07:42:05;1.90;1.00
48936;DHT22;34745;52.276;10.528;2023-01-28T07:44:32;1.90;1.00
48936;DHT22;34745;52.276;10.528;2023-01-28T07:47:01;1.90;1.00
48936;DHT22;34745;52.276;10.528;2023-01-28T07:49:30;1.90;1.00
48936;DHT22;34745;52.276;10.528;2023-01-28T07:51:57;1.90;1.00
48936;DHT22;34745;52.276;10.528;2023-01-28T07:54:24;1.90;1.00
48936;DHT22;34745;52.276;10.528;2023-01-28T07:56:51;1.90;1.00
48936;DHT22;34745;52.276;10.528;2023-01-28T07:59:18;1.80;1.00
48936;DHT22;34745;52.276;10.528;2023-01-28T08:01:46;1.90;1.00
48936;DHT22;34745;52.276;10.528;2023-01-28T08:04:12;1.90;1.00
48936;DHT22;34745;52.276;10.528;2023-01-28T08:06:41;1.90;1.00
48936;DHT22;34745;52.276;10.528;2023-01-28T08:09:08;1.80;1.00
48936;DHT22;34745;52.276;10.528;2023-01-28T08:11:37;1.80;1.00
48936;DHT22;34745;52.276;10.528;2023-01-28T08:14:04;1.70;1.00
48936;DHT22;34745;52.276;10.528;2023-01-28T08:16:31;1.80;1.00
48936;DHT22;34745;52.276;10.528;2023-01-28T08:18:58;1.90;1.00
48936;DHT22;34745;52.276;10.528;2023-01-28T08:21:25;1.80;1.00
48936;DHT22;34745;52.276;10.528;2023-01-28T08:23:54;1.90;1.00
48936;DHT22;34745;52.276;10.528;2023-01-28T08:26:22;2.00;1.00
48936;DHT22;34745;52.276;10.528;2023-01-28T08:28:49;1.90;1.00
48936;DHT22;34745;52.276;10.528;2023-01-28T08:31:17;2.00;1.00
48936;DHT22;34745;52.276;10.528;2023-01-28T08:33:44;2.00;1.00
48936;DHT22;34745;52.276;10.528;2023-01-28T08:36:11;2.00;1.00
48936;DHT22;34745;52.276;10.528;2023-01-28T08:38:39;1.90;1.00
48936;DHT22;34745;52.276;10.528;2023-01-28T08:41:07;2.00;1.00
48936;DHT22;34745;52.276;10.528;2023-01-28T08:43:34;1.80;1.00
48936;DHT22;34745;52.276;10.528;2023-01-28T08:46:03;1.80;1.00
48936;DHT22;34745;52.276;10.528;2023-01-28T08:48:30;1.80;1.00
48936;DHT22;34745;52.276;10.528;2023-01-28T08:50:58;1.80;1.00
48936;DHT22;34745;52.276;10.528;2023-01-28T08:53:25;1.90;1.00
48936;DHT22;34745;52.276;10.528;2023-01-28T08:55:53;2.00;1.00
48936;DHT22;34745;52.276;10.528;2023-01-28T08:58:22;2.10;1.00
48936;DHT22;34745;52.276;10.528;2023-01-28T09:00:49;2.10;1.00
48936;DHT22;34745;52.276;10.528;2023-01-28T09:03:17;2.20;1.00
48936;DHT22;34745;52.276;10.528;2023-01-28T09:05:44;2.20;1.00
48936;DHT22;34745;52.276;10.528;2023-01-28T09:08:13;2.20;1.00
48936;DHT22;34745;52.276;10.528;2023-01-28T09:10:41;2.30;1.00
48936;DHT22;34745;52.276;10.528;2023-01-28T09:13:09;2.30;1.00
48936;DHT22;34745;52.276;10.528;2023-01-28T09:15:38;2.40;1.00
48936;DHT22;34745;52.276;10.528;2023-01-28T09:18:05;2.50;1.00
48936;DHT22;34745;52.276;10.528;2023-01-28T09:20:33;2.40;1.00
48936;DHT22;34745;52.276;10.528;2023-01-28T09:23:00;2.40;1.00
48936;DHT22;34745;52.276;10.528;2023-01-28T09:25:29;2.40;1.00
48936;DHT22;34745;52.276;10.528;2023-01-28T09:27:56;2.40;1.00
48936;DHT22;34745;52.276;10.528;2023-01-28T09:30:24;2.30;1.00
48936;DHT22;34745;52.276;10.528;2023-01-28T09:32:53;2.30;1.00
48936;DHT22;34745;52.276;10.528;2023-01-28T09:35:21;2.30;1.00
48936;DHT22;34745;52.276;10.528;2023-01-28T09:37:48;2.40;1.00
48936;DHT22;34745;52.276;10.528;2023-01-28T09:40:19;2.50;1.00
48936;DHT22;34745;52.276;10.528;2023-01-28T09:42:56;2.50;1.00
48936;DHT22;34745;52.276;10.528;2023-01-28T09:45:30;2.60;1.00
48936;DHT22;34745;52.276;10.528;2023-01-28T09:48:04;2.70;1.00
48936;DHT22;34745;52.276;10.528;2023-01-28T09:50:34;2.60;1.00
48936;DHT22;34745;52.276;10.528;2023-01-28T09:53:04;2.60;1.00
48936;DHT22;34745;52.276;10.528;2023-01-28T09:55:34;2.60;1.00
48936;DHT22;34745;52.276;10.528;2023-01-28T09:58:05;2.50;1.00
48936;DHT22;34745;52.276;10.528;2023-01-28T10:00:39;2.40;1.00
48936;DHT22;34745;52.276;10.528;2023-01-28T10:03:34;2.30;1.00
48936;DHT22;34745;52.276;10.528;2023-01-28T10:06:13;2.10;1.00
48936;DHT22;34745;52.276;10.528;2023-01-28T10:09:11;2.10;1.00
48936;DHT22;34745;52.276;10.528;2023-01-28T10:12:04;2.00;1.00
48936;DHT22;34745;52.276;10.528;2023-01-28T10:14:47;2.00;1.00
48936;DHT22;34745;52.276;10.528;2023-01-28T10:17:17;2.00;1.00
48936;DHT22;34745;52.276;10.528;2023-01-28T10:19:54;1.90;1.00
48936;DHT22;34745;52.276;10.528;2023-01-28T10:22:28;2.00;1.00
48936;DHT22;34745;52.276;10.528;2023-01-28T10:24:59;2.00;1.00
48936;DHT22;34745;52.276;10.528;2023-01-28T10:27:33;2.10;1.00
48936;DHT22;34745;52.276;10.528;2023-01-28T10:30:15;2.10;1.00
48936;DHT22;34745;52.276;10.528;2023-01-28T10:32:50;2.00;1.00
48936;DHT22;34745;52.276;10.528;2023-01-28T10:35:19;2.10;1.00
48936;DHT22;34745;52.276;10.528;2023-01-28T10:37:46;2.00;1.00
48936;DHT22;34745;52.276;10.528;2023-01-28T10:40:15;2.00;1.00
48936;DHT22;34745;52.276;10.528;2023-01-28T10:42:44;2.00;1.00
48936;DHT22;34745;52.276;10.528;2023-01-28T10:45:17;1.90;1.00
48936;DHT22;34745;52.276;10.528;2023-01-28T10:47:49;1.90;1.00
48936;DHT22;34745;52.276;10.528;2023-01-28T10:50:23;2.10;1.00
48936;DHT22;34745;52.276;10.528;2023-01-28T10:52:52;2.00;1.00
48936;DHT22;34745;52.276;10.528;2023-01-28T10:55:20;2.00;1.00
48936;DHT22;34745;52.276;10.528;2023-01-28T10:57:48;2.00;1.00
48936;DHT22;34745;52.276;10.528;2023-01-28T11:00:23;2.00;1.00
48936;DHT22;34745;52.276;10.528;2023-01-28T11:02:51;2.00;1.00
48936;DHT22;34745;52.276;10.528;2023-01-28T11:05:22;1.90;1.00
48936;DHT22;34745;52.276;10.528;2023-01-28T11:08:03;1.90;1.00
48936;DHT22;34745;52.276;10.528;2023-01-28T11:10:32;1.90;1.00
48936;DHT22;34745;52.276;10.528;2023-01-28T11:13:01;2.00;1.00
48936;DHT22;34745;52.276;10.528;2023-01-28T11:15:29;2.00;1.00
48936;DHT22;34745;52.276;10.528;2023-01-28T11:17:58;1.90;1.00
48936;DHT22;34745;52.276;10.528;2023-01-28T11:20:36;2.00;1.00
48936;DHT22;34745;52.276;10.528;2023-01-28T11:23:04;1.90;1.00
48936;DHT22;34745;52.276;10.528;2023-01-28T11:25:33;1.90;1.00
48936;DHT22;34745;52.276;10.528;2023-01-28T11:28:03;1.70;1.00
48936;DHT22;34745;52.276;10.528;2023-01-28T11:30:33;1.80;1.00
48936;DHT22;34745;52.276;10.528;2023-01-28T11:33:11;1.80;1.00
48936;DHT22;34745;52.276;10.528;2023-01-28T11:35:41;1.80;1.00
48936;DHT22;34745;52.276;10.528;2023-01-28T11:38:16;1.90;1.00
48936;DHT22;34745;52.276;10.528;2023-01-28T11:40:49;1.90;1.00
48936;DHT22;34745;52.276;10.528;2023-01-28T11:43:17;1.90;1.00
48936;DHT22;34745;52.276;10.528;2023-01-28T11:45:50;1.90;1.00
48936;DHT22;34745;52.276;10.528;2023-01-28T11:48:29;2.00;1.00
48936;DHT22;34745;52.276;10.528;2023-01-28T11:51:03;2.00;1.00
48936;DHT22;34745;52.276;10.528;2023-01-28T11:54:04;1.90;1.00
48936;DHT22;34745;52.276;10.528;2023-01-28T11:56:55;2.00;1.00
48936;DHT22;34745;52.276;10.528;2023-01-28T11:59:50;2.10;1.00
48936;DHT22;34745;52.276;10.528;2023-01-28T12:02:38;2.10;1.00
48936;DHT22;34745;52.276;10.528;2023-01-28T12:08:15;2.00;1.00
48936;DHT22;34745;52.276;10.528;2023-01-28T12:10:55;2.10;1.00
48936;DHT22;34745;52.276;10.528;2023-01-28T12:13:36;2.10;1.00
48936;DHT22;34745;52.276;10.528;2023-01-28T12:16:16;2.10;1.00
48936;DHT22;34745;52.276;10.528;2023-01-28T12:19:07;2.30;1.00
48936;DHT22;34745;52.276;10.528;2023-01-28T12:21:48;2.30;1.00
48936;DHT22;34745;52.276;10.528;2023-01-28T12:24:31;2.40;1.00
48936;DHT22;34745;52.276;10.528;2023-01-28T12:27:10;2.40;1.00
48936;DHT22;34745;52.276;10.528;2023-01-28T12:29:43;2.70;1.00
48936;DHT22;34745;52.276;10.528;2023-01-28T12:32:32;2.60;1.00
48936;DHT22;34745;52.276;10.528;2023-01-28T12:38:13;2.70;1.00
48936;DHT22;34745;52.276;10.528;2023-01-28T12:40:58;2.70;1.00
48936;DHT22;34745;52.276;10.528;2023-01-28T12:43:48;2.90;1.00
48936;DHT22;34745;52.276;10.528;2023-01-28T12:46:25;2.90;1.00
48936;DHT22;34745;52.276;10.528;2023-01-28T12:48:59;2.90;1.00
48936;DHT22;34745;52.276;10.528;2023-01-28T12:51:33;3.00;1.00
48936;DHT22;34745;52.276;10.528;2023-01-28T12:54:09;3.60;1.00
48936;DHT22;34745;52.276;10.528;2023-01-28T12:56:43;5.00;1.00
48936;DHT22;34745;52.276;10.528;2023-01-28T12:59:15;5.50;1.00
48936;DHT22;34745;52.276;10.528;2023-01-28T13:01:50;5.60;1.00
48936;DHT22;34745;52.276;10.528;2023-01-28T13:04:28;5.60;1.00
48936;DHT22;34745;52.276;10.528;2023-01-28T13:06:59;5.50;1.00
48936;DHT22;34745;52.276;10.528;2023-01-28T13:09:27;5.70;1.00
48936;DHT22;34745;52.276;10.528;2023-01-28T13:11:58;5.80;1.00
48936;DHT22;34745;52.276;10.528;2023-01-28T13:14:29;5.40;1.00
48936;DHT22;34745;52.276;10.528;2023-01-28T13:17:07;5.10;1.00
48936;DHT22;34745;52.276;10.528;2023-01-28T13:19:37;5.70;1.00
48936;DHT22;34745;52.276;10.528;2023-01-28T13:22:25;5.60;1.00
48936;DHT22;34745;52.276;10.528;2023-01-28T13:24:53;5.70;1.00
48936;DHT22;34745;52.276;10.528;2023-01-28T13:27:24;6.10;1.00
48936;DHT22;34745;52.276;10.528;2023-01-28T13:30:02;7.20;1.00
48936;DHT22;34745;52.276;10.528;2023-01-28T13:32:31;7.80;1.00
48936;DHT22;34745;52.276;10.528;2023-01-28T13:35:01;7.60;1.00
48936;DHT22;34745;52.276;10.528;2023-01-28T13:37:32;7.40;1.00
48936;DHT22;34745;52.276;10.528;2023-01-28T13:40:15;6.30;1.00
48936;DHT22;34745;52.276;10.528;2023-01-28T13:43:00;5.00;1.00
48936;DHT22;34745;52.276;10.528;2023-01-28T13:45:28;5.30;1.00
48936;DHT22;34745;52.276;10.528;2023-01-28T13:48:01;5.40;1.00
48936;DHT22;34745;52.276;10.528;2023-01-28T13:50:38;5.60;1.00
48936;DHT22;34745;52.276;10.528;2023-01-28T13:53:18;5.90;1.00
48936;DHT22;34745;52.276;10.528;2023-01-28T13:55:48;6.10;1.00
48936;DHT22;34745;52.276;10.528;2023-01-28T13:58:33;5.00;1.00
48936;DHT22;34745;52.276;10.528;2023-01-28T14:01:30;4.60;1.00
48936;DHT22;34745;52.276;10.528;2023-01-28T14:04:42;5.00;1.00
48936;DHT22;34745;52.276;10.528;2023-01-28T14:07:44;4.30;1.00
48936;DHT22;34745;52.276;10.528;2023-01-28T14:10:29;3.40;1.00
48936;DHT22;34745;52.276;10.528;2023-01-28T14:13:16;2.90;1.00
48936;DHT22;34745;52.276;10.528;2023-01-28T14:16:11;2.50;1.00
48936;DHT22;34745;52.276;10.528;2023-01-28T14:18:43;2.40;1.00
48936;DHT22;34745;52.276;10.528;2023-01-28T14:21:13;2.30;1.00
48936;DHT22;34745;52.276;10.528;2023-01-28T14:23:46;2.50;1.00
48936;DHT22;34745;52.276;10.528;2023-01-28T14:29:26;2.60;1.00
48936;DHT22;34745;52.276;10.528;2023-01-28T14:32:04;2.70;1.00
48936;DHT22;34745;52.276;10.528;2023-01-28T14:34:33;2.90;1.00
48936;DHT22;34745;52.276;10.528;2023-01-28T14:37:04;2.80;1.00
48936;DHT22;34745;52.276;10.528;2023-01-28T14:39:40;2.70;1.00
48936;DHT22;34745;52.276;10.528;2023-01-28T14:42:13;2.60;1.00
48936;DHT22;34745;52.276;10.528;2023-01-28T14:44:43;2.50;1.00
48936;DHT22;34745;52.276;10.528;2023-01-28T14:47:32;2.50;1.00
48936;DHT22;34745;52.276;10.528;2023-01-28T14:50:13;2.40;1.00
48936;DHT22;34745;52.276;10.528;2023-01-28T14:52:55;2.20;1.00
48936;DHT22;34745;52.276;10.528;2023-01-28T14:55:34;2.10;1.00
48936;DHT22;34745;52.276;10.528;2023-01-28T14:58:13;1.90;1.00
48936;DHT22;34745;52.276;10.528;2023-01-28T15:00:52;1.80;1.00
48936;DHT22;34745;52.276;10.528;2023-01-28T15:03:21;1.60;1.00
48936;DHT22;34745;52.276;10.528;2023-01-28T15:06:04;1.60;1.00
48936;DHT22;34745;52.276;10.528;2023-01-28T15:08:32;1.60;1.00
48936;DHT22;34745;52.276;10.528;2023-01-28T15:11:00;1.60;1.00
48936;DHT22;34745;52.276;10.528;2023-01-28T15:13:30;1.50;1.00
48936;DHT22;34745;52.276;10.528;2023-01-28T15:16:00;1.40;1.00
48936;DHT22;34745;52.276;10.528;2023-01-28T15:18:32;1.40;1.00
48936;DHT22;34745;52.276;10.528;2023-01-28T15:21:00;1.40;1.00
48936;DHT22;34745;52.276;10.528;2023-01-28T15:23:31;1.40;1.00
48936;DHT22;34745;52.276;10.528;2023-01-28T15:26:03;1.30;1.00
48936;DHT22;34745;52.276;10.528;2023-01-28T15:28:33;1.20;1.00
48936;DHT22;34745;52.276;10.528;2023-01-28T15:31:01;1.20;1.00
48936;DHT22;34745;52.276;10.528;2023-01-28T15:33:30;1.20;1.00
48936;DHT22;34745;52.276;10.528;2023-01-28T15:36:04;1.20;1.00
48936;DHT22;34745;52.276;10.528;2023-01-28T15:38:32;1.10;1.00
48936;DHT22;34745;52.276;10.528;2023-01-28T15:41:00;1.10;1.00
48936;DHT22;34745;52.276;10.528;2023-01-28T15:43:30;1.10;1.00
48936;DHT22;34745;52.276;10.528;2023-01-28T15:45:58;1.00;1.00
48936;DHT22;34745;52.276;10.528;2023-01-28T15:48:28;1.10;1.00
48936;DHT22;34745;52.276;10.528;2023-01-28T15:50:59;1.00;1.00
48936;DHT22;34745;52.276;10.528;2023-01-28T15:53:32;0.90;1.00
48936;DHT22;34745;52.276;10.528;2023-01-28T15:56:05;0.90;1.00
48936;DHT22;34745;52.276;10.528;2023-01-28T15:58:32;0.80;1.00
48936;DHT22;34745;52.276;10.528;2023-01-28T16:01:12;0.80;1.00
48936;DHT22;34745;52.276;10.528;2023-01-28T16:03:41;0.70;1.00
48936;DHT22;34745;52.276;10.528;2023-01-28T16:06:12;0.80;1.00
48936;DHT22;34745;52.276;10.528;2023-01-28T16:08:46;0.70;1.00
48936;DHT22;34745;52.276;10.528;2023-01-28T16:11:22;0.60;1.00
48936;DHT22;34745;52.276;10.528;2023-01-28T16:13:51;0.60;1.00
48936;DHT22;34745;52.276;10.528;2023-01-28T16:16:29;0.50;1.00
48936;DHT22;34745;52.276;10.528;2023-01-28T16:18:57;0.50;1.00
48936;DHT22;34745;52.276;10.528;2023-01-28T16:21:27;0.50;1.00
48936;DHT22;34745;52.276;10.528;2023-01-28T16:24:01;0.40;1.00
48936;DHT22;34745;52.276;10.528;2023-01-28T16:26:30;0.50;1.00